메인 페이지
METAR-TAF:

METAR-TAF

공항 :

벨렝, 파라, 브라질

위도: 01-23S, 경도: 048-29W, 고도: 16m

현재 날씨관측

예보는 1 시간 17분 전, 19:00시(UTC)에 발표되었습니다.
북북서5kt
온도 25°C
습도 94%
기압 1009 hPa
시정: 4000m
고도 1300ft 상공 구름 보통
고도 2500ft 상공 구름 많음
고도 3000ft 상공 구름 조금, 타워링 적운.
소나기

METAR: SBBE 181900Z 33005KT 9999 4000S SHRA SCT013 BKN025 FEW030TCU 25/24 Q1009 RETS

시각: 17:17 (20:17 UTC)

예보

예보는 4 시간 17분 전, 16:00시(UTC)에 발표되었습니다.
예보 대상 시간: 18일 18시부터 19일 18시까지 (UTC)
동북동10kt
시정 10km 이상
고도 3500ft 상공 구름 많음
고도 4000ft 상공 구름 조금, 타워링 적운.
확률 30% :
일시적
18일 19시부터 18일 22시까지 (UTC)
고도 3500ft 상공 구름 많음
고도 4000ft 상공 구름 조금, 적란운.
뇌우
전환 중
18일 22시부터 18일 24시까지 (UTC)
동북동10kt
전환 중
19일 06시부터 19일 08시까지 (UTC)
5kt
전환 중
19일 11시부터 19일 13시까지 (UTC)
동북동15kt
전환 중
19일 15시부터 19일 17시까지 (UTC)
시정: 3601m
고도 3500ft 상공 구름 많음
고도 4000ft 상공 구름 조금, 타워링 적운.

TAF: SBBE 181600Z 1818/1918 06010KT 9999 BKN035 FEW040TCU TN24/1906Z T X32/1916Z PROB30 TEMPO 1819/1822 TS BKN035 FEW040CB BECMG 1822/1824 06010KT CA VOK BECMG 1906/1908 09005KT BECMG 1911/1913 06015KT BECMG 1915/1917 3601 0KT BKN035 FEW040TCU RMK PCQ

4,000개 이상의 공항 관측 자료 및 예보 (METAR 및 TAF 보고).

지도상에서 검색 가능한 기상관측소가 노란 점과 빨간 점으로 표시되어 있습니다.

기상관측소 명을 보려면 표시 위로 마우스를 이동하세요.

날씨 관측과 예보를 보려면 클릭하세요.

지도 변경 : 확대하려면 엑스 표시가 있는 녹색 버튼, 축소하려면 빼기 표시가 있는 녹색 버튼, 다음 페이지의 지도를 보려면 녹색 화살표를 클릭하세요.


METAR-TAF: